Time;durP1;ratioP1;P1;durP2;ratioP2;P2;SDS_P1;SDS_P2;PMS_P1;PMS_P2;Temp;Humidity;BMP_temperature;BMP_pressure;BME280_temperature;BME280_humidity;BME280_pressure;Samples;Min_cycle;Max_cycle;Signal;HPM_P1;HPM_P2
2022/04/09 00:01:38;;;;;;;10.80;5.07;;;;;;;7.91;100.00;99441.28;30943587;28;20113;-81
2022/04/09 00:16:40;;;;;;;10.57;3.87;;;;;;;7.81;100.00;99461.91;30948183;28;20133;-80
2022/04/09 00:31:42;;;;;;;8.47;4.33;;;;;;;7.70;100.00;99474.09;30924298;28;20062;-79
2022/04/09 00:46:44;;;;;;;10.47;5.00;;;;;;;7.57;100.00;99484.72;30949511;28;20104;-80
2022/04/09 01:01:48;;;;;;;8.93;4.63;;;;;;;7.41;100.00;99517.03;30944246;28;20537;-80
2022/04/09 01:16:51;;;;;;;11.20;5.43;;;;;;;7.19;100.00;99524.72;30954543;28;20049;-80
2022/04/09 01:31:53;;;;;;;9.23;5.10;;;;;;;6.92;100.00;99530.09;31000997;28;20061;-80
2022/04/09 01:46:55;;;;;;;9.67;5.10;;;;;;;6.99;100.00;99540.81;30957494;28;20043;-80
2022/04/09 02:01:58;;;;;;;9.93;4.23;;;;;;;7.02;100.00;99531.91;30961254;28;20140;-81
2022/04/09 02:17:00;;;;;;;7.77;4.07;;;;;;;7.22;100.00;99547.44;30969597;28;20363;-80
2022/04/09 02:32:02;;;;;;;8.07;4.47;;;;;;;7.30;100.00;99570.44;30951429;28;20054;-81
2022/04/09 02:47:05;;;;;;;8.27;4.23;;;;;;;7.40;100.00;99574.91;31006026;28;20050;-80
2022/04/09 03:02:07;;;;;;;5.73;3.57;;;;;;;7.57;100.00;99600.13;30965972;28;20066;-80
2022/04/09 03:17:10;;;;;;;6.60;4.03;;;;;;;7.48;100.00;99595.25;31009903;28;20034;-80
2022/04/09 03:32:12;;;;;;;10.00;5.00;;;;;;;7.56;100.00;99610.16;31012449;28;20565;-80
2022/04/09 03:47:14;;;;;;;10.80;4.83;;;;;;;7.56;100.00;99604.75;30955449;28;20776;-80
2022/04/09 04:02:16;;;;;;;11.27;5.17;;;;;;;7.76;100.00;99610.25;30946949;28;20050;-81
2022/04/09 04:17:18;;;;;;;9.27;4.97;;;;;;;8.06;100.00;99625.56;30948340;28;20042;-81
2022/04/09 04:32:20;;;;;;;10.67;5.00;;;;;;;8.73;100.00;99623.63;30926760;28;20069;-79
2022/04/09 04:47:26;;;;;;;;;;;;;;;9.73;96.98;99633.78;30959049;28;20054;-82
2022/04/09 05:02:28;;;;;;;8.83;4.83;;;;;;;10.76;94.74;99616.84;30967452;28;19929;-81
2022/04/09 05:17:30;;;;;;;13.27;5.20;;;;;;;10.97;91.28;99593.75;30967985;28;20138;-81
2022/04/09 05:32:32;;;;;;;7.23;4.67;;;;;;;11.55;91.18;99588.88;30960791;28;20723;-82
2022/04/09 05:47:39;;;;;;;6.23;3.37;;;;;;;11.99;87.56;99592.50;31005103;28;20050;-80
2022/04/09 06:02:41;;;;;;;6.10;4.40;;;;;;;12.35;86.02;99592.03;31004713;28;20414;-80
2022/04/09 06:17:43;;;;;;;8.70;4.77;;;;;;;13.42;79.46;99612.66;30968756;28;20054;-80
2022/04/09 06:32:45;;;;;;;7.07;3.30;;;;;;;14.19;71.55;99621.59;30959996;28;20069;-80
2022/04/09 06:47:47;;;;;;;3.77;2.37;;;;;;;15.16;61.45;99644.28;30952005;28;20392;-78
2022/04/09 07:02:49;;;;;;;4.03;2.67;;;;;;;15.29;58.03;99674.94;30982959;28;20548;-79
2022/04/09 07:17:51;;;;;;;5.07;2.20;;;;;;;15.76;58.12;99676.28;30974282;28;20113;-79
2022/04/09 07:32:58;;;;;;;3.50;1.83;;;;;;;15.88;53.28;99645.19;30982110;28;20510;-79
2022/04/09 07:48:01;;;;;;;2.33;1.73;;;;;;;16.31;49.02;99638.34;30974741;28;20648;-78
2022/04/09 08:03:03;;;;;;;4.97;2.50;;;;;;;17.32;48.31;99632.69;30995565;28;20057;-78
2022/04/09 08:18:07;;;;;;;5.87;2.50;;;;;;;17.46;48.82;99627.66;30926598;28;20054;-78
2022/04/09 08:33:29;;;;;;;4.80;2.40;;;;;;;17.75;48.50;99638.56;30924931;28;20403;-79
2022/04/09 08:48:32;;;;;;;7.57;3.75;;;;;;;16.65;52.46;99639.03;30996065;28;20101;-80
2022/04/09 09:03:35;;;;;;;6.50;3.57;;;;;;;16.94;52.32;99622.63;30963828;28;20058;-82
2022/04/09 09:18:37;;;;;;;4.80;2.45;;;;;;;17.26;51.36;99604.41;30950617;28;20105;-82
2022/04/09 09:33:59;;;;;;;6.15;2.70;;;;;;;17.93;50.36;99580.66;30840782;28;20059;-80
2022/04/09 09:49:13;;;;;;;5.63;2.15;;;;;;;18.81;45.04;99598.59;30844184;28;20058;-80
2022/04/09 10:04:15;;;;;;;;;;;;;;;18.72;44.11;99563.00;30847519;28;20110;-77
2022/04/09 10:19:18;;;;;;;3.58;2.50;;;;;;;18.88;44.60;99553.41;30848092;28;19922;-79
2022/04/09 10:34:20;;;;;;;4.57;3.03;;;;;;;19.13;43.15;99536.09;30893164;28;20201;-77
2022/04/09 10:49:26;;;;;;;9.93;3.70;;;;;;;19.83;44.72;99496.91;30921740;28;20050;-78
2022/04/09 11:04:36;;;;;;;11.57;4.90;;;;;;;19.75;47.98;99473.84;30879143;28;20076;-78
2022/04/09 11:19:39;;;;;;;8.80;4.72;;;;;;;20.35;48.37;99463.44;30851303;28;20087;-78
2022/04/09 11:34:58;;;;;;;12.50;6.47;;;;;;;21.40;47.42;99454.28;30852493;28;20102;-79
2022/04/09 11:50:02;;;;;;;8.80;4.78;;;;;;;20.48;48.38;99438.91;30827755;28;20066;-76
2022/04/09 12:05:09;;;;;;;7.90;4.07;;;;;;;20.12;48.80;99431.59;30823874;28;20545;-75
2022/04/09 12:20:49;;;;;;;4.15;3.22;;;;;;;20.03;48.91;99413.31;30812765;28;20051;-75
2022/04/09 12:36:05;;;;;;;4.70;3.35;;;;;;;20.21;48.72;99370.75;30750525;28;20043;-76
2022/04/09 12:51:08;;;;;;;6.35;3.47;;;;;;;20.35;48.41;99353.94;30821862;28;20046;-75
2022/04/09 13:06:11;;;;;;;3.87;2.63;;;;;;;20.37;48.52;99356.22;30828847;28;20500;-78
2022/04/09 13:21:13;;;;;;;6.63;3.20;;;;;;;20.02;49.38;99332.69;30816209;28;20048;-77
2022/04/09 13:36:15;;;;;;;8.43;4.07;;;;;;;19.80;51.30;99327.16;30818795;28;20046;-78
2022/04/09 13:51:17;;;;;;;9.23;4.82;;;;;;;19.46;53.92;99342.09;30864042;28;20051;-78
2022/04/09 14:06:21;;;;;;;8.10;4.72;;;;;;;19.54;53.70;99304.63;30839054;28;20066;-78
2022/04/09 14:21:26;;;;;;;6.07;3.58;;;;;;;19.28;53.33;99305.53;30821767;28;20117;-79
2022/04/09 14:36:29;;;;;;;8.00;3.33;;;;;;;19.02;53.04;99304.97;30849040;28;20055;-77
2022/04/09 14:51:31;;;;;;;3.05;2.13;;;;;;;19.01;53.06;99300.72;30884042;28;20105;-79
2022/04/09 15:06:34;;;;;;;5.47;3.00;;;;;;;18.77;53.16;99327.84;30830799;28;20407;-82
2022/04/09 15:21:37;;;;;;;5.60;3.05;;;;;;;18.58;52.31;99343.97;30840524;28;20054;-82
2022/04/09 15:36:44;;;;;;;6.85;2.78;;;;;;;18.31;53.01;99331.56;30833806;28;20046;-81
2022/04/09 15:51:46;;;;;;;18.55;10.88;;;;;;;17.85;54.18;99340.72;30845776;28;20078;-81
2022/04/09 16:06:48;;;;;;;9.25;4.43;;;;;;;17.32;56.29;99350.13;30840502;28;20133;-82
2022/04/09 16:21:50;;;;;;;9.02;4.45;;;;;;;16.91;57.50;99365.09;30781553;28;20061;-81
2022/04/09 16:36:52;;;;;;;7.13;3.70;;;;;;;16.70;57.67;99372.56;30817185;28;20061;-82
2022/04/09 16:51:57;;;;;;;7.90;3.90;;;;;;;16.14;59.35;99398.31;30872722;28;20047;-79
2022/04/09 17:07:01;;;;;;;9.57;5.13;;;;;;;15.27;63.36;99403.94;30834741;28;20051;-82
2022/04/09 17:22:04;;;;;;;8.63;4.80;;;;;;;14.59;66.22;99424.81;30837848;28;20082;-82
2022/04/09 17:37:09;;;;;;;10.37;5.90;;;;;;;14.00;68.49;99436.00;30862972;28;20046;-82
2022/04/09 17:52:11;;;;;;;7.77;5.00;;;;;;;13.56;70.26;99453.91;30886181;28;20053;-82
2022/04/09 18:07:14;;;;;;;13.50;6.17;;;;;;;13.16;71.78;99467.66;30830810;28;20051;-82
2022/04/09 18:22:16;;;;;;;10.20;6.37;;;;;;;12.87;72.96;99463.28;30862996;28;20062;-84
2022/04/09 18:37:19;;;;;;;15.20;6.80;;;;;;;12.51;75.53;99461.19;30917740;28;20612;-84
2022/04/09 18:52:22;;;;;;;12.20;6.70;;;;;;;12.15;75.67;99469.13;30848858;28;20422;-82
2022/04/09 19:07:24;;;;;;;11.67;6.50;;;;;;;11.85;77.30;99468.63;30850297;28;20113;-83
2022/04/09 19:22:27;;;;;;;11.63;5.97;;;;;;;11.69;77.17;99465.28;30837603;28;20496;-84
2022/04/09 19:37:33;;;;;;;10.40;5.93;;;;;;;11.37;78.99;99455.50;30846355;28;20483;-83
2022/04/09 19:52:43;;;;;;;12.80;5.77;;;;;;;11.13;82.72;99464.00;30818590;28;20138;-82
2022/04/09 20:07:45;;;;;;;12.30;5.93;;;;;;;10.93;80.79;99458.06;30829736;28;20178;-82
2022/04/09 20:22:47;;;;;;;9.83;6.00;;;;;;;10.74;82.47;99469.91;30835866;28;20106;-82
2022/04/09 20:37:49;;;;;;;12.97;6.73;;;;;;;10.55;83.35;99472.41;30816695;28;20051;-82
2022/04/09 20:52:51;;;;;;;8.80;5.97;;;;;;;10.35;85.58;99474.56;30822875;28;20059;-83
2022/04/09 21:07:55;;;;;;;18.17;5.73;;;;;;;10.12;85.95;99463.94;30808436;28;20051;-81
2022/04/09 21:22:57;;;;;;;10.83;6.37;;;;;;;9.89;87.97;99468.44;30831803;28;20054;-81
2022/04/09 21:37:59;;;;;;;9.67;5.53;;;;;;;9.74;89.28;99466.50;30821168;28;20423;-81
2022/04/09 21:53:01;;;;;;;17.47;6.23;;;;;;;9.68;90.64;99471.72;30807247;28;20155;-80
2022/04/09 22:08:03;;;;;;;8.17;4.90;;;;;;;9.56;93.44;99472.41;30827522;28;20704;-80
2022/04/09 22:23:06;;;;;;;13.33;6.43;;;;;;;9.50;93.87;99465.97;30840947;28;20098;-80
2022/04/09 22:38:08;;;;;;;15.00;6.53;;;;;;;9.40;97.00;99461.59;30848190;28;20113;-80
2022/04/09 22:53:10;;;;;;;15.97;7.37;;;;;;;9.21;99.46;99453.13;30852708;28;20058;-80
2022/04/09 23:08:12;;;;;;;12.93;7.17;;;;;;;9.07;100.00;99464.31;30851558;28;20081;-80
2022/04/09 23:23:14;;;;;;;14.27;5.70;;;;;;;8.99;100.00;99441.28;30808394;28;20054;-80
2022/04/09 23:38:16;;;;;;;13.47;7.27;;;;;;;8.91;100.00;99450.78;30845593;28;20054;-80
2022/04/09 23:53:19;;;;;;;13.53;6.77;;;;;;;8.83;100.00;99444.00;30843785;28;20050;-80
